sensor_id;sensor_type;location;lat;lon;timestamp;pressure;altitude;pressure_sealevel;temperature;humidity
11692;BME280;33659;42.672;23.354;2023-11-25T00:01:10;68439.00;;;13.61;62.36
11692;BME280;33659;42.672;23.354;2023-11-25T00:03:37;68437.47;;;13.62;61.84
11692;BME280;33659;42.672;23.354;2023-11-25T00:06:04;68370.41;;;13.65;62.45
11692;BME280;33659;42.672;23.354;2023-11-25T00:08:31;68382.66;;;13.71;61.53
11692;BME280;33659;42.672;23.354;2023-11-25T00:10:58;68451.34;;;13.70;61.63
11692;BME280;33659;42.672;23.354;2023-11-25T00:13:24;68456.78;;;13.75;61.44
11692;BME280;33659;42.672;23.354;2023-11-25T00:15:51;68454.19;;;13.75;61.49
11692;BME280;33659;42.672;23.354;2023-11-25T00:18:21;68455.16;;;13.73;61.66
11692;BME280;33659;42.672;23.354;2023-11-25T00:20:48;68454.63;;;13.73;61.67
11692;BME280;33659;42.672;23.354;2023-11-25T00:23:14;68449.84;;;13.71;61.53
11692;BME280;33659;42.672;23.354;2023-11-25T00:25:43;68452.00;;;13.73;61.92
11692;BME280;33659;42.672;23.354;2023-11-25T00:28:09;68379.94;;;13.69;62.34
11692;BME280;33659;42.672;23.354;2023-11-25T00:30:36;68458.41;;;13.76;61.43
11692;BME280;33659;42.672;23.354;2023-11-25T00:33:03;68455.25;;;13.76;62.47
11692;BME280;33659;42.672;23.354;2023-11-25T00:35:31;68448.00;;;13.64;63.69
11692;BME280;33659;42.672;23.354;2023-11-25T00:37:58;68433.56;;;13.55;64.42
11692;BME280;33659;42.672;23.354;2023-11-25T00:40:25;68430.97;;;13.55;65.24
11692;BME280;33659;42.672;23.354;2023-11-25T00:42:52;68427.72;;;13.52;66.03
11692;BME280;33659;42.672;23.354;2023-11-25T00:45:19;68403.22;;;13.27;67.53
11692;BME280;33659;42.672;23.354;2023-11-25T00:47:50;68389.63;;;13.14;67.64
11692;BME280;33659;42.672;23.354;2023-11-25T00:50:17;68385.19;;;13.08;68.04
11692;BME280;33659;42.672;23.354;2023-11-25T00:52:46;68393.84;;;13.16;67.78
11692;BME280;33659;42.672;23.354;2023-11-25T00:55:12;68398.19;;;13.20;67.77
11692;BME280;33659;42.672;23.354;2023-11-25T00:57:39;68396.56;;;13.18;67.76
11692;BME280;33659;42.672;23.354;2023-11-25T01:00:07;68407.97;;;13.29;66.93
11692;BME280;33659;42.672;23.354;2023-11-25T01:02:38;68402.09;;;13.26;67.37
11692;BME280;33659;42.672;23.354;2023-11-25T01:05:06;68409.28;;;13.35;66.27
11692;BME280;33659;42.672;23.354;2023-11-25T01:07:32;68413.50;;;13.37;66.80
11692;BME280;33659;42.672;23.354;2023-11-25T01:10:00;68421.00;;;13.41;67.46
11692;BME280;33659;42.672;23.354;2023-11-25T01:12:29;68427.59;;;13.50;67.03
11692;BME280;33659;42.672;23.354;2023-11-25T01:14:56;68432.50;;;13.54;67.57
11692;BME280;33659;42.672;23.354;2023-11-25T01:17:23;68437.25;;;13.57;68.34
11692;BME280;33659;42.672;23.354;2023-11-25T01:19:51;68435.72;;;13.58;69.60
11692;BME280;33659;42.672;23.354;2023-11-25T01:22:18;68428.59;;;13.48;69.65
11692;BME280;33659;42.672;23.354;2023-11-25T01:24:45;68424.34;;;13.47;69.56
11692;BME280;33659;42.672;23.354;2023-11-25T01:27:14;68421.53;;;13.42;70.53
11692;BME280;33659;42.672;23.354;2023-11-25T01:29:41;68423.16;;;13.43;71.38
11692;BME280;33659;42.672;23.354;2023-11-25T01:32:07;68402.66;;;13.26;71.99
11692;BME280;33659;42.672;23.354;2023-11-25T01:34:34;68378.34;;;13.06;71.85
11692;BME280;33659;42.672;23.354;2023-11-25T01:37:02;68356.03;;;12.83;72.63
11692;BME280;33659;42.672;23.354;2023-11-25T01:39:29;68328.38;;;12.57;73.66
11692;BME280;33659;42.672;23.354;2023-11-25T01:41:56;68319.69;;;12.48;74.03
11692;BME280;33659;42.672;23.354;2023-11-25T01:44:24;68307.25;;;12.37;74.33
11692;BME280;33659;42.672;23.354;2023-11-25T01:46:51;68286.22;;;12.19;75.08
11692;BME280;33659;42.672;23.354;2023-11-25T01:49:19;68266.63;;;11.99;75.96
11692;BME280;33659;42.672;23.354;2023-11-25T01:51:48;68245.47;;;11.79;77.85
11692;BME280;33659;42.672;23.354;2023-11-25T01:54:16;68224.88;;;11.59;79.76
11692;BME280;33659;42.672;23.354;2023-11-25T01:56:45;68203.75;;;11.39;81.54
11692;BME280;33659;42.672;23.354;2023-11-25T01:59:14;68187.09;;;11.26;83.14
11692;BME280;33659;42.672;23.354;2023-11-25T02:01:44;68177.88;;;11.18;84.13
11692;BME280;33659;42.672;23.354;2023-11-25T02:04:11;68178.88;;;11.16;84.77
11692;BME280;33659;42.672;23.354;2023-11-25T02:06:38;68171.28;;;11.09;84.71
11692;BME280;33659;42.672;23.354;2023-11-25T02:09:05;68159.91;;;10.98;84.63
11692;BME280;33659;42.672;23.354;2023-11-25T02:11:52;68148.00;;;10.87;84.90
11692;BME280;33659;42.672;23.354;2023-11-25T02:14:19;68114.56;;;10.58;85.09
11692;BME280;33659;42.672;23.354;2023-11-25T02:16:47;68099.41;;;10.44;86.01
11692;BME280;33659;42.672;23.354;2023-11-25T02:19:14;68081.56;;;10.27;86.78
11692;BME280;33659;42.672;23.354;2023-11-25T02:21:42;68068.00;;;10.14;87.40
11692;BME280;33659;42.672;23.354;2023-11-25T02:24:10;68063.69;;;10.10;88.02
11692;BME280;33659;42.672;23.354;2023-11-25T02:26:37;68063.03;;;10.07;88.34
11692;BME280;33659;42.672;23.354;2023-11-25T02:29:04;68054.94;;;9.99;88.63
11692;BME280;33659;42.672;23.354;2023-11-25T02:31:31;68045.72;;;9.91;89.03
11692;BME280;33659;42.672;23.354;2023-11-25T02:33:58;68030.72;;;9.79;89.10
11692;BME280;33659;42.672;23.354;2023-11-25T02:36:26;68043.03;;;9.88;89.01
11692;BME280;33659;42.672;23.354;2023-11-25T02:38:53;68032.31;;;9.81;89.10
11692;BME280;33659;42.672;23.354;2023-11-25T02:41:21;68025.72;;;9.72;89.29
11692;BME280;33659;42.672;23.354;2023-11-25T02:43:49;68024.22;;;9.73;88.77
11692;BME280;33659;42.672;23.354;2023-11-25T02:46:17;68031.25;;;9.80;87.94
11692;BME280;33659;42.672;23.354;2023-11-25T02:48:44;68026.81;;;9.73;87.16
11692;BME280;33659;42.672;23.354;2023-11-25T02:51:10;68017.59;;;9.64;86.14
11692;BME280;33659;42.672;23.354;2023-11-25T02:53:37;68015.00;;;9.64;85.98
11692;BME280;33659;42.672;23.354;2023-11-25T02:56:04;68004.22;;;9.54;85.66
11692;BME280;33659;42.672;23.354;2023-11-25T02:58:32;68004.63;;;9.52;86.38
11692;BME280;33659;42.672;23.354;2023-11-25T03:01:00;67995.00;;;9.45;86.75
11692;BME280;33659;42.672;23.354;2023-11-25T03:03:32;67973.28;;;9.22;86.17
11692;BME280;33659;42.672;23.354;2023-11-25T03:06:02;67958.25;;;9.11;86.63
11692;BME280;33659;42.672;23.354;2023-11-25T03:08:31;67947.44;;;9.01;87.02
11692;BME280;33659;42.672;23.354;2023-11-25T03:11:00;67936.50;;;8.88;87.87
11692;BME280;33659;42.672;23.354;2023-11-25T03:13:30;67930.16;;;8.84;88.25
11692;BME280;33659;42.672;23.354;2023-11-25T03:15:58;67920.94;;;8.76;88.48
11692;BME280;33659;42.672;23.354;2023-11-25T03:18:24;67918.38;;;8.76;89.07
11692;BME280;33659;42.672;23.354;2023-11-25T03:20:51;67914.50;;;8.70;90.14
11692;BME280;33659;42.672;23.354;2023-11-25T03:23:19;67919.88;;;8.75;89.85
11692;BME280;33659;42.672;23.354;2023-11-25T03:25:45;67933.38;;;8.87;89.58
11692;BME280;33659;42.672;23.354;2023-11-25T03:28:12;67939.34;;;8.93;88.95
11692;BME280;33659;42.672;23.354;2023-11-25T03:30:40;67936.09;;;8.90;89.04
11692;BME280;33659;42.672;23.354;2023-11-25T03:33:08;67936.09;;;8.90;89.62
11692;BME280;33659;42.672;23.354;2023-11-25T03:35:35;67936.09;;;8.90;89.90
11692;BME280;33659;42.672;23.354;2023-11-25T03:38:02;67950.03;;;9.01;89.67
11692;BME280;33659;42.672;23.354;2023-11-25T03:40:29;67949.06;;;9.02;88.92
11692;BME280;33659;42.672;23.354;2023-11-25T03:42:56;67947.44;;;9.01;86.65
11692;BME280;33659;42.672;23.354;2023-11-25T03:45:23;67925.28;;;8.80;86.33
11692;BME280;33659;42.672;23.354;2023-11-25T03:47:51;67932.19;;;8.84;85.90
11692;BME280;33659;42.672;23.354;2023-11-25T03:50:19;67917.06;;;8.70;86.73
11692;BME280;33659;42.672;23.354;2023-11-25T03:52:46;67895.56;;;8.52;86.59
11692;BME280;33659;42.672;23.354;2023-11-25T03:55:13;67890.72;;;8.47;86.49
11692;BME280;33659;42.672;23.354;2023-11-25T03:57:40;67892.22;;;8.46;86.62
11692;BME280;33659;42.672;23.354;2023-11-25T04:00:07;67896.53;;;8.50;86.43
11692;BME280;33659;42.672;23.354;2023-11-25T04:02:41;67885.31;;;8.42;86.60
11692;BME280;33659;42.672;23.354;2023-11-25T04:05:08;67878.28;;;8.35;87.23
11692;BME280;33659;42.672;23.354;2023-11-25T04:07:36;67808.97;;;8.33;86.99
11692;BME280;33659;42.672;23.354;2023-11-25T04:10:03;67870.16;;;8.28;87.43
11692;BME280;33659;42.672;23.354;2023-11-25T04:12:38;67852.88;;;8.11;88.20
11692;BME280;33659;42.672;23.354;2023-11-25T04:15:05;67858.69;;;8.14;87.96
11692;BME280;33659;42.672;23.354;2023-11-25T04:17:33;67862.50;;;8.18;87.99
11692;BME280;33659;42.672;23.354;2023-11-25T04:20:00;67864.09;;;8.20;87.66
11692;BME280;33659;42.672;23.354;2023-11-25T04:22:27;67863.03;;;8.19;88.10
11692;BME280;33659;42.672;23.354;2023-11-25T04:24:55;67856.13;;;8.14;88.39
11692;BME280;33659;42.672;23.354;2023-11-25T04:27:22;67856.00;;;8.12;88.52
11692;BME280;33659;42.672;23.354;2023-11-25T04:29:51;67846.81;;;8.03;88.41
11692;BME280;33659;42.672;23.354;2023-11-25T04:32:18;67834.53;;;7.94;88.78
11692;BME280;33659;42.672;23.354;2023-11-25T04:34:46;67841.00;;;8.00;89.26
11692;BME280;33659;42.672;23.354;2023-11-25T04:37:13;67840.47;;;8.00;88.99
11692;BME280;33659;42.672;23.354;2023-11-25T04:39:40;67839.78;;;7.97;88.29
11692;BME280;33659;42.672;23.354;2023-11-25T04:42:09;67830.19;;;7.90;88.10
11692;BME280;33659;42.672;23.354;2023-11-25T04:44:35;67835.06;;;7.95;87.75
11692;BME280;33659;42.672;23.354;2023-11-25T04:47:02;67824.25;;;7.84;87.36
11692;BME280;33659;42.672;23.354;2023-11-25T04:49:29;67819.41;;;7.80;87.39
11692;BME280;33659;42.672;23.354;2023-11-25T04:51:56;67796.19;;;7.58;87.50
11692;BME280;33659;42.672;23.354;2023-11-25T04:54:22;67789.16;;;7.51;87.70
11692;BME280;33659;42.672;23.354;2023-11-25T04:56:49;67791.75;;;7.51;87.80
11692;BME280;33659;42.672;23.354;2023-11-25T04:59:17;67772.97;;;7.36;87.81
11692;BME280;33659;42.672;23.354;2023-11-25T05:01:44;67769.06;;;7.30;87.91
11692;BME280;33659;42.672;23.354;2023-11-25T05:04:10;67763.78;;;7.27;88.32
11692;BME280;33659;42.672;23.354;2023-11-25T05:06:37;67758.41;;;7.22;89.57
11692;BME280;33659;42.672;23.354;2023-11-25T05:09:04;67742.75;;;7.07;89.96
11692;BME280;33659;42.672;23.354;2023-11-25T05:11:31;67760.56;;;7.24;91.10
11692;BME280;33659;42.672;23.354;2023-11-25T05:13:58;67746.53;;;7.11;89.34
11692;BME280;33659;42.672;23.354;2023-11-25T05:16:26;67758.94;;;7.23;89.25
11692;BME280;33659;42.672;23.354;2023-11-25T05:18:53;67765.41;;;7.29;88.65
11692;BME280;33659;42.672;23.354;2023-11-25T05:21:19;67775.13;;;7.38;90.66
11692;BME280;33659;42.672;23.354;2023-11-25T05:23:46;67771.22;;;7.32;87.72
11692;BME280;33659;42.672;23.354;2023-11-25T05:26:14;67758.41;;;7.22;87.29
11692;BME280;33659;42.672;23.354;2023-11-25T05:28:42;67753.53;;;7.18;85.74
11692;BME280;33659;42.672;23.354;2023-11-25T05:31:08;67726.56;;;6.92;83.94
11692;BME280;33659;42.672;23.354;2023-11-25T05:33:36;67694.19;;;6.62;84.85
11692;BME280;33659;42.672;23.354;2023-11-25T05:36:03;67668.28;;;6.37;84.51
11692;BME280;33659;42.672;23.354;2023-11-25T05:38:30;67657.50;;;6.27;84.74
11692;BME280;33659;42.672;23.354;2023-11-25T05:40:57;67639.19;;;6.10;84.81
11692;BME280;33659;42.672;23.354;2023-11-25T05:43:23;67630.56;;;6.02;84.78
11692;BME280;33659;42.672;23.354;2023-11-25T05:45:50;67619.75;;;5.91;85.56
11692;BME280;33659;42.672;23.354;2023-11-25T05:48:17;67608.56;;;5.83;85.60
11692;BME280;33659;42.672;23.354;2023-11-25T05:50:45;67594.00;;;5.69;84.40
11692;BME280;33659;42.672;23.354;2023-11-25T05:53:12;67567.47;;;5.42;85.51
11692;BME280;33659;42.672;23.354;2023-11-25T05:55:39;67557.66;;;5.30;85.80
11692;BME280;33659;42.672;23.354;2023-11-25T05:58:06;67538.50;;;5.17;85.82
11692;BME280;33659;42.672;23.354;2023-11-25T06:00:33;67518.03;;;4.98;85.23
11692;BME280;33659;42.672;23.354;2023-11-25T06:03:00;67515.19;;;4.93;85.31
11692;BME280;33659;42.672;23.354;2023-11-25T06:05:27;67497.41;;;4.76;84.58
11692;BME280;33659;42.672;23.354;2023-11-25T06:07:55;67463.50;;;4.44;85.18
11692;BME280;33659;42.672;23.354;2023-11-25T06:10:22;67465.78;;;4.48;85.22
11692;BME280;33659;42.672;23.354;2023-11-25T06:12:49;67458.53;;;4.37;85.11
11692;BME280;33659;42.672;23.354;2023-11-25T06:15:17;67432.28;;;4.14;85.67
11692;BME280;33659;42.672;23.354;2023-11-25T06:17:45;67426.88;;;4.09;86.11
11692;BME280;33659;42.672;23.354;2023-11-25T06:20:12;67429.56;;;4.12;86.03
11692;BME280;33659;42.672;23.354;2023-11-25T06:22:39;67425.41;;;4.10;86.12
11692;BME280;33659;42.672;23.354;2023-11-25T06:25:08;67420.00;;;4.05;86.22
11692;BME280;33659;42.672;23.354;2023-11-25T06:27:35;67407.50;;;3.91;86.06
11692;BME280;33659;42.672;23.354;2023-11-25T06:30:02;67402.78;;;3.89;86.37
11692;BME280;33659;42.672;23.354;2023-11-25T06:32:29;67400.09;;;3.86;86.75
11692;BME280;33659;42.672;23.354;2023-11-25T06:34:58;67393.09;;;3.79;87.24
11692;BME280;33659;42.672;23.354;2023-11-25T06:37:26;67389.88;;;3.76;86.85
11692;BME280;33659;42.672;23.354;2023-11-25T06:39:52;67382.22;;;3.67;87.50
11692;BME280;33659;42.672;23.354;2023-11-25T06:42:20;67378.03;;;3.65;88.19
11692;BME280;33659;42.672;23.354;2023-11-25T06:44:47;67374.81;;;3.62;87.84
11692;BME280;33659;42.672;23.354;2023-11-25T06:47:16;67392.56;;;3.79;87.33
11692;BME280;33659;42.672;23.354;2023-11-25T06:49:44;67404.81;;;3.88;86.88
11692;BME280;33659;42.672;23.354;2023-11-25T06:52:11;67405.47;;;3.91;86.56
11692;BME280;33659;42.672;23.354;2023-11-25T06:54:38;67413.00;;;3.98;86.32
11692;BME280;33659;42.672;23.354;2023-11-25T06:57:05;67425.41;;;4.10;85.25
11692;BME280;33659;42.672;23.354;2023-11-25T06:59:34;67444.66;;;4.26;85.32
11692;BME280;33659;42.672;23.354;2023-11-25T07:02:00;67451.66;;;4.32;84.44
11692;BME280;33659;42.672;23.354;2023-11-25T07:04:29;67464.16;;;4.47;83.31
11692;BME280;33659;42.672;23.354;2023-11-25T07:06:56;67462.41;;;4.43;83.36
11692;BME280;33659;42.672;23.354;2023-11-25T07:09:22;67466.84;;;4.49;83.18
11692;BME280;33659;42.672;23.354;2023-11-25T07:11:49;67477.50;;;4.57;82.66
11692;BME280;33659;42.672;23.354;2023-11-25T07:14:16;67490.41;;;4.69;82.51
11692;BME280;33659;42.672;23.354;2023-11-25T07:16:45;67492.16;;;4.73;82.22
11692;BME280;33659;42.672;23.354;2023-11-25T07:19:11;67503.34;;;4.81;81.41
11692;BME280;33659;42.672;23.354;2023-11-25T07:21:38;67517.50;;;4.97;80.89
11692;BME280;33659;42.672;23.354;2023-11-25T07:24:05;67517.34;;;4.95;80.05
11692;BME280;33659;42.672;23.354;2023-11-25T07:26:33;67510.88;;;4.88;80.40
11692;BME280;33659;42.672;23.354;2023-11-25T07:29:05;67518.84;;;4.94;80.05
11692;BME280;33659;42.672;23.354;2023-11-25T07:31:34;67507.66;;;4.85;80.60
11692;BME280;33659;42.672;23.354;2023-11-25T07:34:03;67503.34;;;4.81;80.68
11692;BME280;33659;42.672;23.354;2023-11-25T07:36:30;67501.84;;;4.82;80.93
11692;BME280;33659;42.672;23.354;2023-11-25T07:38:57;67489.34;;;4.68;81.25
11692;BME280;33659;42.672;23.354;2023-11-25T07:41:24;67492.59;;;4.71;81.85
11692;BME280;33659;42.672;23.354;2023-11-25T07:43:51;67496.88;;;4.75;81.67
11692;BME280;33659;42.672;23.354;2023-11-25T07:46:18;67500.78;;;4.81;81.36
11692;BME280;33659;42.672;23.354;2023-11-25T07:48:45;67507.25;;;4.87;81.23
11692;BME280;33659;42.672;23.354;2023-11-25T07:51:14;67499.16;;;4.80;80.73
11692;BME280;33659;42.672;23.354;2023-11-25T07:53:40;67504.03;;;4.84;81.16
11692;BME280;33659;42.672;23.354;2023-11-25T07:56:07;67495.28;;;4.74;81.70
11692;BME280;33659;42.672;23.354;2023-11-25T07:58:34;67476.56;;;4.58;81.86
11692;BME280;33659;42.672;23.354;2023-11-25T08:01:01;67478.16;;;4.60;82.48
11692;BME280;33659;42.672;23.354;2023-11-25T08:03:29;67469.94;;;4.50;82.51
11692;BME280;33659;42.672;23.354;2023-11-25T08:05:56;67472.78;;;4.55;82.83
11692;BME280;33659;42.672;23.354;2023-11-25T08:08:24;67460.94;;;4.44;82.45
11692;BME280;33659;42.672;23.354;2023-11-25T08:10:50;67464.16;;;4.47;82.28
11692;BME280;33659;42.672;23.354;2023-11-25T08:13:17;67453.28;;;4.34;82.60
11692;BME280;33659;42.672;23.354;2023-11-25T08:15:45;67439.41;;;4.23;82.95
11692;BME280;33659;42.672;23.354;2023-11-25T08:18:12;67446.81;;;4.28;82.52
11692;BME280;33659;42.672;23.354;2023-11-25T08:20:40;67439.94;;;4.24;82.36
11692;BME280;33659;42.672;23.354;2023-11-25T08:23:07;67418.28;;;4.01;83.26
11692;BME280;33659;42.672;23.354;2023-11-25T08:25:36;67420.00;;;4.05;83.70
11692;BME280;33659;42.672;23.354;2023-11-25T08:28:03;67418.41;;;4.03;83.47
11692;BME280;33659;42.672;23.354;2023-11-25T08:30:30;67413.00;;;3.98;83.64
11692;BME280;33659;42.672;23.354;2023-11-25T08:32:56;67414.66;;;4.00;84.01
11692;BME280;33659;42.672;23.354;2023-11-25T08:35:25;67431.84;;;4.16;83.51
11692;BME280;33659;42.672;23.354;2023-11-25T08:37:52;67418.81;;;4.01;83.74
11692;BME280;33659;42.672;23.354;2023-11-25T08:40:18;67408.19;;;3.94;84.37
11692;BME280;33659;42.672;23.354;2023-11-25T08:42:48;67401.72;;;3.88;84.31
11692;BME280;33659;42.672;23.354;2023-11-25T08:45:15;67403.34;;;3.89;84.41
11692;BME280;33659;42.672;23.354;2023-11-25T08:47:43;67394.72;;;3.81;85.33
11692;BME280;33659;42.672;23.354;2023-11-25T08:50:10;67401.03;;;3.85;84.52
11692;BME280;33659;42.672;23.354;2023-11-25T08:52:40;67389.34;;;3.76;85.39
11692;BME280;33659;42.672;23.354;2023-11-25T08:55:09;67381.66;;;3.66;86.21
11692;BME280;33659;42.672;23.354;2023-11-25T08:57:36;67371.56;;;3.59;86.31
11692;BME280;33659;42.672;23.354;2023-11-25T09:00:05;67390.41;;;3.77;87.60
11692;BME280;33659;42.672;23.354;2023-11-25T09:02:40;67376.44;;;3.64;86.68
11692;BME280;33659;42.672;23.354;2023-11-25T09:05:07;67373.19;;;3.61;86.24
11692;BME280;33659;42.672;23.354;2023-11-25T09:07:33;67378.44;;;3.63;86.69
11692;BME280;33659;42.672;23.354;2023-11-25T09:10:00;67372.66;;;3.60;86.65
11692;BME280;33659;42.672;23.354;2023-11-25T09:12:30;67368.91;;;3.57;86.88
11692;BME280;33659;42.672;23.354;2023-11-25T09:14:57;67389.34;;;3.76;86.17
11692;BME280;33659;42.672;23.354;2023-11-25T09:17:26;67389.34;;;3.76;85.83
11692;BME280;33659;42.672;23.354;2023-11-25T09:19:53;67387.72;;;3.74;85.86
11692;BME280;33659;42.672;23.354;2023-11-25T09:22:19;67370.09;;;3.60;85.42
11692;BME280;33659;42.672;23.354;2023-11-25T09:24:46;67388.81;;;3.75;86.20
11692;BME280;33659;42.672;23.354;2023-11-25T09:27:13;67403.75;;;3.87;85.49
11692;BME280;33659;42.672;23.354;2023-11-25T09:29:40;67396.22;;;3.80;85.27
11692;BME280;33659;42.672;23.354;2023-11-25T09:32:08;67373.75;;;3.61;85.90
11692;BME280;33659;42.672;23.354;2023-11-25T09:34:36;67376.97;;;3.64;86.44
11692;BME280;33659;42.672;23.354;2023-11-25T09:37:04;67380.75;;;3.68;86.48
11692;BME280;33659;42.672;23.354;2023-11-25T09:39:33;67382.34;;;3.69;85.44
11692;BME280;33659;42.672;23.354;2023-11-25T09:42:00;67382.88;;;3.70;85.37
11692;BME280;33659;42.672;23.354;2023-11-25T09:44:28;67364.72;;;3.55;86.71
11692;BME280;33659;42.672;23.354;2023-11-25T09:46:55;67358.13;;;3.46;86.94
11692;BME280;33659;42.672;23.354;2023-11-25T09:49:22;67358.00;;;3.44;87.05
11692;BME280;33659;42.672;23.354;2023-11-25T09:51:51;67359.06;;;3.45;87.41
11692;BME280;33659;42.672;23.354;2023-11-25T09:54:20;67354.38;;;3.43;87.13
11692;BME280;33659;42.672;23.354;2023-11-25T09:56:48;67352.75;;;3.41;87.09
11692;BME280;33659;42.672;23.354;2023-11-25T09:59:16;67350.72;;;3.42;87.64
11692;BME280;33659;42.672;23.354;2023-11-25T10:01:44;67352.75;;;3.41;87.70
11692;BME280;33659;42.672;23.354;2023-11-25T10:04:11;67365.13;;;3.53;87.43
11692;BME280;33659;42.672;23.354;2023-11-25T10:06:39;67368.34;;;3.56;87.02
11692;BME280;33659;42.672;23.354;2023-11-25T10:09:08;67384.50;;;3.71;86.52
11692;BME280;33659;42.672;23.354;2023-11-25T10:11:37;67402.66;;;3.86;86.44
11692;BME280;33659;42.672;23.354;2023-11-25T10:14:09;67416.13;;;3.99;85.78
11692;BME280;33659;42.672;23.354;2023-11-25T10:16:39;67414.09;;;3.99;85.38
11692;BME280;33659;42.672;23.354;2023-11-25T10:19:16;67420.44;;;4.03;85.03
11692;BME280;33659;42.672;23.354;2023-11-25T10:21:44;67421.09;;;4.06;84.86
11692;BME280;33659;42.672;23.354;2023-11-25T10:24:13;67420.44;;;4.03;84.34
11692;BME280;33659;42.672;23.354;2023-11-25T10:26:41;67413.97;;;3.97;84.76
11692;BME280;33659;42.672;23.354;2023-11-25T10:29:09;67410.88;;;3.96;84.57
11692;BME280;33659;42.672;23.354;2023-11-25T10:31:40;67420.00;;;4.05;84.28
11692;BME280;33659;42.672;23.354;2023-11-25T10:34:08;67423.66;;;4.06;84.59
11692;BME280;33659;42.672;23.354;2023-11-25T10:36:37;67425.28;;;4.07;84.49
11692;BME280;33659;42.672;23.354;2023-11-25T10:39:05;67430.09;;;4.12;85.01
11692;BME280;33659;42.672;23.354;2023-11-25T10:41:35;67427.97;;;4.10;84.39
11692;BME280;33659;42.672;23.354;2023-11-25T10:44:05;67423.09;;;4.05;84.53
11692;BME280;33659;42.672;23.354;2023-11-25T10:46:39;67436.56;;;4.18;84.52
11692;BME280;33659;42.672;23.354;2023-11-25T10:49:07;67442.63;;;4.26;84.60
11692;BME280;33659;42.672;23.354;2023-11-25T10:51:37;67452.31;;;4.35;83.77
11692;BME280;33659;42.672;23.354;2023-11-25T10:54:05;67450.69;;;4.34;83.72
11692;BME280;33659;42.672;23.354;2023-11-25T10:56:36;67460.38;;;4.43;82.83
11692;BME280;33659;42.672;23.354;2023-11-25T10:59:05;67453.00;;;4.39;83.47
11692;BME280;33659;42.672;23.354;2023-11-25T11:01:34;67457.16;;;4.40;83.45
11692;BME280;33659;42.672;23.354;2023-11-25T11:04:05;67462.41;;;4.43;83.65
11692;BME280;33659;42.672;23.354;2023-11-25T11:06:41;67463.63;;;4.46;83.34
11692;BME280;33659;42.672;23.354;2023-11-25T11:09:11;67464.03;;;4.44;82.68
11692;BME280;33659;42.672;23.354;2023-11-25T11:11:49;67460.38;;;4.43;82.82
11692;BME280;33659;42.672;23.354;2023-11-25T11:14:19;67418.41;;;4.03;83.21
11692;BME280;33659;42.672;23.354;2023-11-25T11:16:51;67443.72;;;4.27;83.27
11692;BME280;33659;42.672;23.354;2023-11-25T11:19:23;67447.88;;;4.29;83.50
11692;BME280;33659;42.672;23.354;2023-11-25T11:21:57;67439.94;;;4.24;84.16
11692;BME280;33659;42.672;23.354;2023-11-25T11:24:38;67440.88;;;4.22;84.62
11692;BME280;33659;42.672;23.354;2023-11-25T11:27:13;67440.47;;;4.24;84.35
11692;BME280;33659;42.672;23.354;2023-11-25T11:29:46;67449.09;;;4.32;83.95
11692;BME280;33659;42.672;23.354;2023-11-25T11:32:17;67444.13;;;4.25;84.75
11692;BME280;33659;42.672;23.354;2023-11-25T11:34:45;67436.16;;;4.20;85.09
11692;BME280;33659;42.672;23.354;2023-11-25T11:37:12;67454.47;;;4.38;84.44
11692;BME280;33659;42.672;23.354;2023-11-25T11:39:40;67463.63;;;4.46;84.08
11692;BME280;33659;42.672;23.354;2023-11-25T11:42:27;67476.41;;;4.56;83.87
11692;BME280;33659;42.672;23.354;2023-11-25T11:44:59;67482.88;;;4.62;82.66
11692;BME280;33659;42.672;23.354;2023-11-25T11:47:37;67481.28;;;4.60;82.62
11692;BME280;33659;42.672;23.354;2023-11-25T11:50:06;67481.38;;;4.63;82.72
11692;BME280;33659;42.672;23.354;2023-11-25T11:52:34;67487.19;;;4.66;83.15
11692;BME280;33659;42.672;23.354;2023-11-25T11:55:37;67474.94;;;4.57;82.70
11692;BME280;33659;42.672;23.354;2023-11-25T11:58:08;67464.59;;;4.45;82.82
11692;BME280;33659;42.672;23.354;2023-11-25T12:01:05;67459.72;;;4.40;83.83
11692;BME280;33659;42.672;23.354;2023-11-25T12:03:34;67462.94;;;4.43;83.49
11692;BME280;33659;42.672;23.354;2023-11-25T12:06:02;67456.22;;;4.42;83.75
11692;BME280;33659;42.672;23.354;2023-11-25T12:08:30;67445.31;;;4.29;83.60
11692;BME280;33659;42.672;23.354;2023-11-25T12:11:00;67448.00;;;4.31;83.80
11692;BME280;33659;42.672;23.354;2023-11-25T12:13:33;67464.59;;;4.45;83.79
11692;BME280;33659;42.672;23.354;2023-11-25T12:16:01;67448.56;;;4.32;83.61
11692;BME280;33659;42.672;23.354;2023-11-25T12:18:31;67446.28;;;4.27;84.00
11692;BME280;33659;42.672;23.354;2023-11-25T12:20:59;67446.94;;;4.30;83.94
11692;BME280;33659;42.672;23.354;2023-11-25T12:23:27;67449.50;;;4.30;83.77
11692;BME280;33659;42.672;23.354;2023-11-25T12:25:56;67448.94;;;4.30;84.05
11692;BME280;33659;42.672;23.354;2023-11-25T12:28:23;67453.81;;;4.34;83.59
11692;BME280;33659;42.672;23.354;2023-11-25T12:30:51;67437.78;;;4.22;83.15
11692;BME280;33659;42.672;23.354;2023-11-25T12:33:18;67441.00;;;4.25;83.65
11692;BME280;33659;42.672;23.354;2023-11-25T12:35:46;67447.47;;;4.31;83.69
11692;BME280;33659;42.672;23.354;2023-11-25T12:38:13;67442.63;;;4.26;82.94
11692;BME280;33659;42.672;23.354;2023-11-25T12:40:41;67426.47;;;4.11;83.33
11692;BME280;33659;42.672;23.354;2023-11-25T12:43:09;67443.03;;;4.24;83.19
11692;BME280;33659;42.672;23.354;2023-11-25T12:45:37;67457.59;;;4.38;82.63
11692;BME280;33659;42.672;23.354;2023-11-25T12:48:08;67453.38;;;4.37;82.28
11692;BME280;33659;42.672;23.354;2023-11-25T12:50:58;67462.03;;;4.45;82.14
11692;BME280;33659;42.672;23.354;2023-11-25T12:53:24;67465.66;;;4.46;81.88
11692;BME280;33659;42.672;23.354;2023-11-25T12:55:51;67466.84;;;4.49;81.48
11692;BME280;33659;42.672;23.354;2023-11-25T12:58:18;67449.50;;;4.30;82.10
11692;BME280;33659;42.672;23.354;2023-11-25T13:00:47;67458.13;;;4.39;82.11
11692;BME280;33659;42.672;23.354;2023-11-25T13:03:23;67457.59;;;4.38;81.47